createdAt,value
2018-04-06T00:00:03.077Z,0.00
2018-04-06T00:01:03.050Z,0.00
2018-04-06T00:02:03.025Z,0.00
2018-04-06T00:03:03.015Z,0.00
2018-04-06T00:04:02.984Z,0.00
2018-04-06T00:05:02.964Z,0.00
2018-04-06T00:06:02.939Z,0.00
2018-04-06T00:07:02.920Z,0.00
2018-04-06T00:08:02.902Z,0.00
2018-04-06T00:09:02.874Z,0.00
2018-04-06T00:10:02.854Z,0.00
2018-04-06T00:11:02.829Z,0.00
2018-04-06T00:12:02.810Z,0.00
2018-04-06T00:13:02.790Z,0.00
2018-04-06T00:14:02.768Z,0.00
2018-04-06T00:15:02.748Z,0.00
2018-04-06T00:16:02.723Z,0.00
2018-04-06T00:17:02.704Z,0.00
2018-04-06T00:18:02.684Z,0.00
2018-04-06T00:19:02.664Z,0.00
2018-04-06T00:20:02.638Z,0.00
2018-04-06T00:21:02.615Z,0.00
2018-04-06T00:22:02.597Z,0.00
2018-04-06T00:23:02.571Z,0.00
2018-04-06T00:24:02.550Z,0.00
2018-04-06T00:25:02.526Z,0.00
2018-04-06T00:26:02.505Z,0.00
2018-04-06T00:27:02.488Z,0.00
2018-04-06T00:28:02.470Z,0.00
2018-04-06T00:29:02.442Z,0.00
2018-04-06T00:30:02.420Z,0.00
2018-04-06T00:31:02.404Z,0.00
2018-04-06T00:32:02.380Z,0.00
2018-04-06T00:33:02.360Z,0.00
2018-04-06T00:34:02.363Z,0.00
2018-04-06T00:35:02.311Z,0.00
2018-04-06T00:36:02.295Z,0.00
2018-04-06T00:37:02.270Z,0.00
2018-04-06T00:38:02.250Z,0.00
2018-04-06T00:39:02.229Z,0.00
2018-04-06T00:40:02.206Z,0.00
2018-04-06T00:41:02.180Z,0.00
2018-04-06T00:42:02.160Z,0.00
2018-04-06T00:43:02.145Z,0.00
2018-04-06T00:44:02.119Z,0.00
2018-04-06T00:45:02.098Z,0.00
2018-04-06T00:46:02.073Z,0.00
2018-04-06T00:47:02.050Z,0.00
2018-04-06T00:48:02.045Z,0.00
2018-04-06T00:49:02.009Z,0.00
2018-04-06T00:50:01.989Z,0.00
2018-04-06T00:51:01.975Z,0.00
2018-04-06T00:52:01.953Z,0.00
2018-04-06T00:53:01.925Z,0.00
2018-04-06T00:54:01.899Z,0.00
2018-04-06T00:55:01.879Z,0.00
2018-04-06T00:56:01.858Z,0.00
2018-04-06T00:57:01.835Z,0.00
2018-04-06T00:58:01.813Z,0.00
2018-04-06T00:59:01.789Z,0.00
2018-04-06T01:00:01.770Z,0.00
2018-04-06T01:01:01.753Z,0.00
2018-04-06T01:02:01.725Z,0.00
2018-04-06T01:03:01.714Z,0.00
2018-04-06T01:04:01.688Z,0.00
2018-04-06T01:05:01.662Z,0.00
2018-04-06T01:06:01.640Z,0.00
2018-04-06T01:07:01.620Z,0.00
2018-04-06T01:08:01.618Z,0.00
2018-04-06T01:09:01.575Z,0.00
2018-04-06T01:10:01.555Z,0.00
2018-04-06T01:11:01.532Z,0.00
2018-04-06T01:12:01.510Z,0.00
2018-04-06T01:13:01.488Z,0.00
2018-04-06T01:14:01.467Z,0.00
2018-04-06T01:15:01.449Z,0.00
2018-04-06T01:16:01.423Z,0.00
2018-04-06T01:17:01.398Z,0.00
2018-04-06T01:18:01.381Z,0.00
2018-04-06T01:19:01.362Z,0.00
2018-04-06T01:20:01.338Z,0.00
2018-04-06T01:21:01.328Z,0.00
2018-04-06T01:22:01.290Z,0.00
2018-04-06T01:23:01.272Z,0.00
2018-04-06T01:24:01.250Z,0.00
2018-04-06T01:25:01.224Z,0.00
2018-04-06T01:26:01.219Z,0.00
2018-04-06T01:27:01.179Z,0.00
2018-04-06T01:28:01.160Z,0.00
2018-04-06T01:29:01.141Z,0.00
2018-04-06T01:30:01.116Z,0.00
2018-04-06T01:31:01.110Z,0.00
2018-04-06T01:32:01.075Z,0.00
2018-04-06T01:33:01.062Z,0.00
2018-04-06T01:34:01.029Z,0.00
2018-04-06T01:35:01.006Z,0.00
2018-04-06T01:36:00.987Z,0.00
2018-04-06T01:37:00.963Z,0.00
2018-04-06T01:38:00.940Z,0.00
2018-04-06T01:39:00.919Z,0.00
2018-04-06T01:40:00.903Z,0.00
2018-04-06T01:41:00.878Z,0.00
2018-04-06T01:42:00.854Z,0.00
2018-04-06T01:43:00.838Z,0.00
2018-04-06T01:44:00.814Z,0.00
2018-04-06T01:45:00.792Z,0.00
2018-04-06T01:46:00.767Z,0.00
2018-04-06T01:47:00.748Z,0.00
2018-04-06T01:48:00.726Z,0.00
2018-04-06T01:49:00.700Z,0.00
2018-04-06T01:50:00.680Z,0.00
2018-04-06T01:51:00.660Z,0.00
2018-04-06T01:52:00.640Z,0.00
2018-04-06T01:53:00.617Z,0.00
2018-04-06T01:54:00.593Z,0.00
2018-04-06T01:55:00.568Z,0.00
2018-04-06T01:56:00.549Z,0.00
2018-04-06T01:57:00.532Z,0.00
2018-04-06T01:58:00.504Z,0.00
2018-04-06T01:59:00.482Z,0.00
2018-04-06T02:00:00.543Z,0.00
2018-04-06T02:01:00.437Z,0.00
2018-04-06T02:02:00.417Z,0.00
2018-04-06T02:03:00.414Z,0.00
2018-04-06T02:04:00.379Z,0.00
2018-04-06T02:05:00.349Z,0.00
2018-04-06T02:06:00.334Z,0.00
2018-04-06T02:07:00.308Z,0.00
2018-04-06T02:08:00.289Z,0.00
2018-04-06T02:09:00.263Z,0.00
2018-04-06T02:10:00.242Z,0.00
2018-04-06T02:11:00.223Z,0.00
2018-04-06T02:12:00.196Z,0.00
2018-04-06T02:13:00.174Z,0.00
2018-04-06T02:14:00.159Z,0.00
2018-04-06T02:15:00.133Z,0.00
2018-04-06T02:16:00.110Z,0.00
2018-04-06T02:17:00.089Z,0.00
2018-04-06T02:18:00.065Z,0.00
2018-04-06T02:19:00.046Z,0.00
2018-04-06T02:20:00.022Z,0.00
2018-04-06T02:21:00.002Z,0.00
2018-04-06T02:21:59.980Z,0.00
2018-04-06T02:22:59.955Z,0.00
2018-04-06T02:23:59.945Z,0.00
2018-04-06T02:24:59.918Z,0.00
2018-04-06T02:25:59.900Z,0.00
2018-04-06T02:26:59.871Z,0.00
2018-04-06T02:27:59.848Z,0.00
2018-04-06T02:28:59.827Z,0.00
2018-04-06T02:29:59.804Z,0.00
2018-04-06T02:30:59.787Z,0.00
2018-04-06T02:31:59.766Z,0.00
2018-04-06T02:32:59.744Z,0.00
2018-04-06T02:33:59.714Z,0.00
2018-04-06T02:34:59.696Z,0.00
2018-04-06T02:35:59.673Z,0.00
2018-04-06T02:36:59.649Z,0.00
2018-04-06T02:37:59.633Z,0.00
2018-04-06T02:38:59.609Z,0.00
2018-04-06T02:39:59.586Z,0.00
2018-04-06T02:40:59.563Z,0.00
2018-04-06T02:41:59.541Z,0.00
2018-04-06T02:42:59.518Z,0.00
2018-04-06T02:43:59.503Z,0.00
2018-04-06T02:44:59.488Z,0.00
2018-04-06T02:45:59.455Z,0.00
2018-04-06T02:46:59.435Z,0.00
2018-04-06T02:47:59.410Z,0.00
2018-04-06T02:48:59.398Z,0.00
2018-04-06T02:49:59.365Z,0.00
2018-04-06T02:50:59.352Z,0.00
2018-04-06T02:51:59.325Z,0.00
2018-04-06T02:52:59.299Z,0.00
2018-04-06T02:53:59.282Z,0.00
2018-04-06T02:54:59.260Z,0.00
2018-04-06T02:55:59.239Z,0.00
2018-04-06T02:56:59.213Z,0.00
2018-04-06T02:57:59.190Z,0.00
2018-04-06T02:58:59.170Z,0.00
2018-04-06T02:59:59.152Z,0.00
2018-04-06T03:00:59.123Z,0.00
2018-04-06T03:01:59.104Z,0.00
2018-04-06T03:02:59.080Z,0.00
2018-04-06T03:03:59.070Z,0.00
2018-04-06T03:04:59.040Z,0.00
2018-04-06T03:05:59.016Z,0.00
2018-04-06T03:06:58.996Z,0.00
2018-04-06T03:07:58.971Z,0.00
2018-04-06T03:08:58.949Z,0.00
2018-04-06T03:09:58.929Z,0.00
2018-04-06T03:10:58.907Z,0.00
2018-04-06T03:11:58.882Z,0.00
2018-04-06T03:12:58.860Z,0.00
2018-04-06T03:13:58.842Z,0.00
2018-04-06T03:14:58.833Z,0.00
2018-04-06T03:15:58.794Z,0.00
2018-04-06T03:16:58.770Z,0.00
2018-04-06T03:17:58.760Z,0.00
2018-04-06T03:18:58.729Z,0.00
2018-04-06T03:19:58.707Z,0.00
2018-04-06T03:20:58.686Z,0.00
2018-04-06T03:21:58.659Z,0.00
2018-04-06T03:22:58.640Z,0.00
2018-04-06T03:23:58.623Z,0.00
2018-04-06T03:24:58.597Z,0.00
2018-04-06T03:25:58.580Z,0.00
2018-04-06T03:26:58.560Z,0.00
2018-04-06T03:27:58.534Z,0.00
2018-04-06T03:28:58.509Z,0.00
2018-04-06T03:29:58.483Z,0.00
2018-04-06T03:30:58.469Z,0.00
2018-04-06T03:31:58.443Z,0.00
2018-04-06T03:32:58.420Z,0.00
2018-04-06T03:33:58.398Z,0.00
2018-04-06T03:34:58.380Z,0.00
2018-04-06T03:35:58.359Z,0.00
2018-04-06T03:36:58.330Z,0.00
2018-04-06T03:37:58.311Z,0.00
2018-04-06T03:38:58.287Z,0.00
2018-04-06T03:39:58.263Z,0.00
2018-04-06T03:40:58.239Z,0.00
2018-04-06T03:41:58.220Z,0.00
2018-04-06T03:42:58.199Z,0.00
2018-04-06T03:43:58.176Z,0.00
2018-04-06T03:44:58.153Z,0.00
2018-04-06T03:45:58.137Z,0.00
2018-04-06T03:46:58.111Z,0.00
2018-04-06T03:47:58.088Z,0.00
2018-04-06T03:48:58.064Z,0.00
2018-04-06T03:49:58.040Z,0.00
2018-04-06T03:50:58.026Z,0.00
2018-04-06T03:51:58.004Z,0.00
2018-04-06T03:52:57.978Z,0.00
2018-04-06T03:53:57.953Z,0.00
2018-04-06T03:54:57.930Z,0.00
2018-04-06T03:55:57.909Z,0.00
2018-04-06T03:56:57.888Z,0.00
2018-04-06T03:57:57.865Z,0.00
2018-04-06T03:58:57.842Z,0.00
2018-04-06T03:59:57.819Z,0.00
2018-04-06T04:00:57.797Z,0.00
2018-04-06T04:01:57.779Z,0.00
2018-04-06T04:02:57.755Z,0.00
2018-04-06T04:03:57.735Z,0.00
2018-04-06T04:04:57.709Z,0.00
2018-04-06T04:05:57.691Z,0.00
2018-04-06T04:06:57.672Z,0.00
2018-04-06T04:07:57.643Z,0.00
2018-04-06T04:08:57.620Z,0.00
2018-04-06T04:09:57.598Z,0.00
2018-04-06T04:10:57.585Z,0.00
2018-04-06T04:11:57.624Z,0.00
2018-04-06T04:12:57.534Z,0.00
2018-04-06T04:13:57.520Z,0.00
2018-04-06T04:14:57.493Z,0.00
2018-04-06T04:15:57.473Z,0.00
2018-04-06T04:16:57.449Z,0.00
2018-04-06T04:17:57.433Z,0.00
2018-04-06T04:18:57.401Z,0.00
2018-04-06T04:19:57.376Z,0.00
2018-04-06T04:20:57.358Z,0.00
2018-04-06T04:21:57.337Z,0.00
2018-04-06T04:22:57.308Z,0.00
2018-04-06T04:23:57.288Z,0.00
2018-04-06T04:24:57.266Z,0.00
2018-04-06T04:25:57.249Z,0.00
2018-04-06T04:26:57.241Z,0.00
2018-04-06T04:27:57.225Z,0.00
2018-04-06T04:28:57.173Z,0.00
2018-04-06T04:29:57.156Z,0.00
2018-04-06T04:30:57.129Z,0.00
2018-04-06T04:31:57.109Z,0.00
2018-04-06T04:32:57.094Z,0.00
2018-04-06T04:33:57.065Z,0.00
2018-04-06T04:34:57.042Z,4.00
2018-04-06T04:35:57.021Z,0.00
2018-04-06T04:36:57.000Z,0.00
2018-04-06T04:37:56.984Z,0.00
2018-04-06T04:38:56.960Z,4.00
2018-04-06T04:39:56.954Z,0.00
2018-04-06T04:40:56.909Z,4.00
2018-04-06T04:41:56.889Z,4.00
2018-04-06T04:42:56.867Z,4.00
2018-04-06T04:43:56.840Z,4.00
2018-04-06T04:44:56.818Z,4.00
2018-04-06T04:45:56.796Z,8.00
2018-04-06T04:46:56.779Z,8.00
2018-04-06T04:47:56.752Z,8.00
2018-04-06T04:48:56.730Z,4.00
2018-04-06T04:49:56.710Z,12.00
2018-04-06T04:50:56.683Z,12.00
2018-04-06T04:51:56.662Z,12.00
2018-04-06T04:52:56.644Z,12.00
2018-04-06T04:53:56.619Z,12.00
2018-04-06T04:54:56.596Z,12.00
2018-04-06T04:55:56.575Z,16.00
2018-04-06T04:56:56.554Z,16.00
2018-04-06T04:57:56.527Z,20.00
2018-04-06T04:58:56.509Z,20.00
2018-04-06T04:59:56.485Z,20.00
2018-04-06T05:00:56.466Z,24.00
2018-04-06T05:01:56.441Z,24.00
2018-04-06T05:02:56.417Z,28.00
2018-04-06T05:03:56.399Z,28.00
2018-04-06T05:04:56.377Z,32.00
2018-04-06T05:05:56.350Z,32.00
2018-04-06T05:06:56.329Z,36.00
2018-04-06T05:07:56.305Z,36.00
2018-04-06T05:08:56.285Z,36.00
2018-04-06T05:09:56.267Z,40.00
2018-04-06T05:10:56.239Z,44.00
2018-04-06T05:11:56.218Z,48.00
2018-04-06T05:12:56.194Z,48.00
2018-04-06T05:13:56.170Z,52.00
2018-04-06T05:14:56.152Z,56.00
2018-04-06T05:15:56.126Z,56.00
2018-04-06T05:16:56.106Z,60.00
2018-04-06T05:17:56.083Z,60.00
2018-04-06T05:18:56.060Z,64.00
2018-04-06T05:19:56.038Z,68.00
2018-04-06T05:20:56.017Z,68.00
2018-04-06T05:21:55.989Z,72.00
2018-04-06T05:22:55.973Z,76.00
2018-04-06T05:23:55.946Z,76.00
2018-04-06T05:24:55.926Z,80.00
2018-04-06T05:25:55.903Z,80.00
2018-04-06T05:26:55.880Z,84.00
2018-04-06T05:27:55.864Z,88.00
2018-04-06T05:28:55.836Z,88.00
2018-04-06T05:29:55.815Z,96.00
2018-04-06T05:30:55.790Z,96.00
2018-04-06T05:31:55.773Z,96.00
2018-04-06T05:32:55.753Z,100.00
2018-04-06T05:33:55.730Z,104.00
2018-04-06T05:34:55.710Z,108.00
2018-04-06T05:35:55.687Z,108.00
2018-04-06T05:36:55.656Z,108.00
2018-04-06T05:37:55.639Z,116.00
2018-04-06T05:38:55.619Z,116.00
2018-04-06T05:39:55.592Z,120.00
2018-04-06T05:40:55.568Z,124.00
2018-04-06T05:41:55.545Z,124.00
2018-04-06T05:42:55.527Z,124.00
2018-04-06T05:43:55.501Z,128.00
2018-04-06T05:44:55.481Z,128.00
2018-04-06T05:45:55.456Z,136.00
2018-04-06T05:46:55.434Z,136.00
2018-04-06T05:47:55.414Z,136.00
2018-04-06T05:48:55.389Z,140.00
2018-04-06T05:49:55.370Z,140.00
2018-04-06T05:50:55.346Z,144.00
2018-04-06T05:51:55.329Z,148.00
2018-04-06T05:52:55.297Z,148.00
2018-04-06T05:53:55.279Z,152.00
2018-04-06T05:54:55.256Z,152.00
2018-04-06T05:55:55.239Z,156.00
2018-04-06T05:56:55.209Z,160.00
2018-04-06T05:57:55.189Z,160.00
2018-04-06T05:58:55.169Z,160.00
2018-04-06T05:59:55.149Z,164.00
2018-04-06T06:00:55.124Z,164.00
2018-04-06T06:01:55.102Z,168.00
2018-04-06T06:02:55.084Z,168.00
2018-04-06T06:03:55.070Z,172.00
2018-04-06T06:04:55.042Z,176.00
2018-04-06T06:05:55.012Z,176.00
2018-04-06T06:06:54.999Z,176.00
2018-04-06T06:07:54.965Z,184.00
2018-04-06T06:08:54.941Z,184.00
2018-04-06T06:09:54.926Z,188.00
2018-04-06T06:10:54.899Z,188.00
2018-04-06T06:11:54.877Z,192.00
2018-04-06T06:12:54.855Z,192.00
2018-04-06T06:13:54.831Z,192.00
2018-04-06T06:14:54.809Z,196.00
2018-04-06T06:15:54.791Z,196.00
2018-04-06T06:16:54.767Z,200.00
2018-04-06T06:17:54.751Z,200.00
2018-04-06T06:18:54.719Z,200.00
2018-04-06T06:19:54.703Z,204.00
2018-04-06T06:20:54.678Z,208.00
2018-04-06T06:21:54.654Z,208.00
2018-04-06T06:22:54.633Z,212.00
2018-04-06T06:23:54.616Z,212.00
2018-04-06T06:24:54.589Z,220.00
2018-04-06T06:25:54.569Z,224.00
2018-04-06T06:26:54.545Z,228.00
2018-04-06T06:27:54.522Z,232.00
2018-04-06T06:28:54.499Z,236.00
2018-04-06T06:29:54.479Z,236.00
2018-04-06T06:30:54.459Z,244.00
2018-04-06T06:31:54.435Z,252.00
2018-04-06T06:32:54.413Z,256.00
2018-04-06T06:33:54.395Z,256.00
2018-04-06T06:34:54.379Z,264.00
2018-04-06T06:35:54.349Z,272.00
2018-04-06T06:36:54.355Z,280.00
2018-04-06T06:37:54.301Z,284.00
2018-04-06T06:38:54.289Z,292.00
2018-04-06T06:39:54.264Z,296.00
2018-04-06T06:40:54.237Z,300.00
2018-04-06T06:41:54.215Z,308.00
2018-04-06T06:42:54.217Z,316.00
2018-04-06T06:43:54.176Z,320.00
2018-04-06T06:44:54.167Z,324.00
2018-04-06T06:45:54.128Z,328.00
2018-04-06T06:46:54.103Z,332.00
2018-04-06T06:47:54.087Z,344.00
2018-04-06T06:48:54.063Z,352.00
2018-04-06T06:49:54.039Z,360.00
2018-04-06T06:50:54.020Z,368.00
2018-04-06T06:51:54.002Z,380.00
2018-04-06T06:52:53.975Z,392.00
2018-04-06T06:53:53.949Z,408.00
2018-04-06T06:54:53.929Z,424.00
2018-04-06T06:55:53.910Z,440.00
2018-04-06T06:56:53.894Z,460.00
2018-04-06T06:57:53.863Z,480.00
2018-04-06T06:58:53.842Z,496.00
2018-04-06T06:59:53.826Z,508.00
2018-04-06T07:00:53.804Z,520.00
2018-04-06T07:01:53.776Z,536.00
2018-04-06T07:02:53.758Z,544.00
2018-04-06T07:03:53.738Z,556.00
2018-04-06T07:04:53.714Z,564.00
2018-04-06T07:05:53.690Z,576.00
2018-04-06T07:06:53.666Z,588.00
2018-04-06T07:07:53.658Z,596.00
2018-04-06T07:08:53.626Z,608.00
2018-04-06T07:09:53.607Z,632.00
2018-04-06T07:10:53.587Z,656.00
2018-04-06T07:11:53.560Z,688.00
2018-04-06T07:12:53.537Z,716.00
2018-04-06T07:13:53.515Z,748.00
2018-04-06T07:14:53.496Z,780.00
2018-04-06T07:15:53.475Z,804.00
2018-04-06T07:16:53.454Z,832.00
2018-04-06T07:17:53.429Z,864.00
2018-04-06T07:18:53.409Z,888.00
2018-04-06T07:19:53.391Z,916.00
2018-04-06T07:20:53.366Z,928.00
2018-04-06T07:21:53.343Z,944.00
2018-04-06T07:22:53.323Z,956.00
2018-04-06T07:23:53.299Z,972.00
2018-04-06T07:24:53.279Z,980.00
2018-04-06T07:25:53.262Z,956.00
2018-04-06T07:26:53.237Z,1028.00
2018-04-06T07:27:53.222Z,1048.00
2018-04-06T07:28:53.195Z,1064.00
2018-04-06T07:29:53.169Z,1072.00
2018-04-06T07:30:53.147Z,1088.00
2018-04-06T07:31:53.126Z,1120.00
2018-04-06T07:32:53.104Z,1132.00
2018-04-06T07:33:53.088Z,1136.00
2018-04-06T07:34:53.064Z,1148.00
2018-04-06T07:35:53.039Z,1160.00
2018-04-06T07:36:53.020Z,1172.00
2018-04-06T07:37:53.008Z,1184.00
2018-04-06T07:38:52.985Z,1200.00
2018-04-06T07:39:52.960Z,1212.00
2018-04-06T07:40:52.935Z,1224.00
2018-04-06T07:41:52.913Z,1244.00
2018-04-06T07:42:52.897Z,1260.00
2018-04-06T07:43:52.873Z,1276.00
2018-04-06T07:44:52.849Z,1292.00
2018-04-06T07:45:52.829Z,1312.00
2018-04-06T07:46:52.809Z,1328.00
2018-04-06T07:47:52.796Z,1344.00
2018-04-06T07:48:52.769Z,1360.00
2018-04-06T07:49:52.747Z,1372.00
2018-04-06T07:50:52.727Z,1392.00
2018-04-06T07:51:52.701Z,1408.00
2018-04-06T07:52:52.682Z,1416.00
2018-04-06T07:53:52.661Z,1436.00
2018-04-06T07:54:52.640Z,1452.00
2018-04-06T07:55:52.620Z,1468.00
2018-04-06T07:56:52.597Z,1484.00
2018-04-06T07:57:52.580Z,1488.00
2018-04-06T07:58:52.557Z,1504.00
2018-04-06T07:59:52.543Z,1524.00
2018-04-06T08:00:52.513Z,1536.00
2018-04-06T08:01:52.492Z,1560.00
2018-04-06T08:02:52.472Z,1568.00
2018-04-06T08:03:52.452Z,1580.00
2018-04-06T08:04:52.429Z,1588.00
2018-04-06T08:05:52.406Z,1600.00
2018-04-06T08:06:52.389Z,1608.00
2018-04-06T08:07:52.370Z,1628.00
2018-04-06T08:08:52.349Z,1660.00
2018-04-06T08:09:52.328Z,1672.00
2018-04-06T08:10:52.305Z,1688.00
2018-04-06T08:11:52.294Z,1700.00
2018-04-06T08:12:52.268Z,1712.00
2018-04-06T08:13:52.239Z,1732.00
2018-04-06T08:14:52.230Z,1744.00
2018-04-06T08:15:52.203Z,1764.00
2018-04-06T08:16:52.191Z,1768.00
2018-04-06T08:17:52.159Z,1788.00
2018-04-06T08:18:52.140Z,1796.00
2018-04-06T08:19:52.131Z,1812.00
2018-04-06T08:20:52.102Z,1816.00
2018-04-06T08:21:52.080Z,1836.00
2018-04-06T08:22:52.059Z,1856.00
2018-04-06T08:23:52.045Z,1864.00
2018-04-06T08:24:52.034Z,1876.00
2018-04-06T08:25:51.996Z,1888.00
2018-04-06T08:26:51.978Z,1904.00
2018-04-06T08:27:51.956Z,1912.00
2018-04-06T08:28:51.939Z,1924.00
2018-04-06T08:29:51.916Z,1936.00
2018-04-06T08:30:51.893Z,1968.00
2018-04-06T08:31:51.876Z,1972.00
2018-04-06T08:32:51.854Z,1984.00
2018-04-06T08:33:51.839Z,1996.00
2018-04-06T08:34:51.869Z,2016.00
2018-04-06T08:35:51.796Z,2024.00
2018-04-06T08:36:51.772Z,2036.00
2018-04-06T08:37:51.754Z,2048.00
2018-04-06T08:38:51.742Z,2028.00
2018-04-06T08:39:51.710Z,2056.00
2018-04-06T08:40:51.696Z,2068.00
2018-04-06T08:41:51.686Z,2084.00
2018-04-06T08:42:51.658Z,2096.00
2018-04-06T08:43:51.631Z,2112.00
2018-04-06T08:44:51.610Z,2112.00
2018-04-06T08:45:51.594Z,2120.00
2018-04-06T08:46:51.568Z,2128.00
2018-04-06T08:47:51.549Z,2136.00
2018-04-06T08:48:51.530Z,2136.00
2018-04-06T08:49:51.509Z,2128.00
2018-04-06T08:50:51.489Z,2148.00
2018-04-06T08:51:51.470Z,2148.00
2018-04-06T08:52:51.453Z,2144.00
2018-04-06T08:53:51.440Z,2128.00
2018-04-06T08:54:51.468Z,2116.00
2018-04-06T08:55:51.410Z,2080.00
2018-04-06T08:56:51.382Z,2052.00
2018-04-06T08:57:51.350Z,2032.00
2018-04-06T08:58:51.330Z,2016.00
2018-04-06T08:59:51.316Z,2016.00
2018-04-06T09:00:51.297Z,2032.00
2018-04-06T09:01:51.276Z,2032.00
2018-04-06T09:02:51.252Z,2024.00
2018-04-06T09:03:51.235Z,2028.00
2018-04-06T09:04:51.216Z,2028.00
2018-04-06T09:05:51.195Z,2036.00
2018-04-06T09:06:51.179Z,2040.00
2018-04-06T09:07:51.161Z,2044.00
2018-04-06T09:08:51.138Z,2060.00
2018-04-06T09:09:51.116Z,2068.00
2018-04-06T09:10:51.104Z,2084.00
2018-04-06T09:11:51.102Z,2092.00
2018-04-06T09:12:51.057Z,2104.00
2018-04-06T09:13:51.051Z,2112.00
2018-04-06T09:14:51.020Z,2120.00
2018-04-06T09:15:51.000Z,2136.00
2018-04-06T09:16:50.977Z,2152.00
2018-04-06T09:17:50.957Z,2152.00
2018-04-06T09:18:50.940Z,2164.00
2018-04-06T09:19:50.920Z,2168.00
2018-04-06T09:20:50.901Z,2172.00
2018-04-06T09:21:50.892Z,2176.00
2018-04-06T09:22:50.865Z,2184.00
2018-04-06T09:23:50.858Z,2188.00
2018-04-06T09:24:50.823Z,2196.00
2018-04-06T09:25:50.812Z,2200.00
2018-04-06T09:26:50.783Z,2212.00
2018-04-06T09:27:50.769Z,2216.00
2018-04-06T09:28:50.745Z,2212.00
2018-04-06T09:29:50.727Z,2220.00
2018-04-06T09:30:50.711Z,2236.00
2018-04-06T09:31:50.692Z,2240.00
2018-04-06T09:32:50.669Z,2244.00
2018-04-06T09:33:50.650Z,2252.00
2018-04-06T09:34:50.635Z,2264.00
2018-04-06T09:35:50.624Z,2288.00
2018-04-06T09:36:50.589Z,2288.00
2018-04-06T09:37:50.587Z,2296.00
2018-04-06T09:38:50.554Z,2300.00
2018-04-06T09:39:50.535Z,2304.00
2018-04-06T09:40:50.515Z,2320.00
2018-04-06T09:41:50.503Z,2320.00
2018-04-06T09:42:50.480Z,2332.00
2018-04-06T09:43:50.462Z,2328.00
2018-04-06T09:44:50.442Z,2312.00
2018-04-06T09:45:50.420Z,2308.00
2018-04-06T09:46:50.404Z,2344.00
2018-04-06T09:47:50.391Z,2344.00
2018-04-06T09:48:50.366Z,2348.00
2018-04-06T09:49:50.350Z,2352.00
2018-04-06T09:50:50.329Z,2356.00
2018-04-06T09:51:50.314Z,2360.00
2018-04-06T09:52:50.286Z,2360.00
2018-04-06T09:53:50.311Z,2364.00
2018-04-06T09:54:50.258Z,2368.00
2018-04-06T09:55:50.248Z,2372.00
2018-04-06T09:56:50.219Z,2376.00
2018-04-06T09:57:50.199Z,2376.00
2018-04-06T09:58:50.175Z,2372.00
2018-04-06T09:59:50.160Z,2368.00
2018-04-06T10:00:50.144Z,2376.00
2018-04-06T10:01:50.121Z,2376.00
2018-04-06T10:02:50.145Z,2376.00
2018-04-06T10:03:50.084Z,2376.00
2018-04-06T10:04:50.060Z,2372.00
2018-04-06T10:05:50.046Z,2352.00
2018-04-06T10:06:50.024Z,2376.00
2018-04-06T10:07:50.012Z,2372.00
2018-04-06T10:08:49.987Z,2372.00
2018-04-06T10:09:49.969Z,2376.00
2018-04-06T10:10:49.968Z,2368.00
2018-04-06T10:11:49.930Z,2380.00
2018-04-06T10:12:49.918Z,2372.00
2018-04-06T10:13:49.897Z,2368.00
2018-04-06T10:14:49.881Z,2376.00
2018-04-06T10:15:49.858Z,2376.00
2018-04-06T10:16:49.840Z,2380.00
2018-04-06T10:17:49.823Z,2400.00
2018-04-06T10:18:49.806Z,2376.00
2018-04-06T10:19:49.786Z,2376.00
2018-04-06T10:20:49.764Z,2376.00
2018-04-06T10:21:49.795Z,2372.00
2018-04-06T10:22:49.731Z,2368.00
2018-04-06T10:23:49.708Z,2368.00
2018-04-06T10:24:49.695Z,2368.00
2018-04-06T10:25:49.682Z,2364.00
2018-04-06T10:26:49.655Z,2368.00
2018-04-06T10:27:49.638Z,2364.00
2018-04-06T10:28:49.617Z,2372.00
2018-04-06T10:29:49.607Z,2372.00
2018-04-06T10:30:49.580Z,2372.00
2018-04-06T10:31:49.568Z,2368.00
2018-04-06T10:32:49.544Z,2352.00
2018-04-06T10:33:49.529Z,2344.00
2018-04-06T10:34:49.509Z,2352.00
2018-04-06T10:35:49.489Z,2364.00
2018-04-06T10:36:49.472Z,2344.00
2018-04-06T10:37:49.461Z,2348.00
2018-04-06T10:38:49.463Z,2348.00
2018-04-06T10:39:49.418Z,2332.00
2018-04-06T10:40:49.401Z,2360.00
2018-04-06T10:41:49.385Z,2364.00
2018-04-06T10:42:49.361Z,2356.00
2018-04-06T10:43:49.660Z,2344.00
2018-04-06T10:44:49.325Z,2344.00
2018-04-06T10:45:49.311Z,2356.00
2018-04-06T10:46:49.293Z,2344.00
2018-04-06T10:47:49.271Z,2356.00
2018-04-06T10:48:49.250Z,2348.00
2018-04-06T10:49:49.234Z,2348.00
2018-04-06T10:50:49.226Z,2320.00
2018-04-06T10:51:49.194Z,2316.00
2018-04-06T10:52:49.179Z,2316.00
2018-04-06T10:53:49.171Z,2304.00
2018-04-06T10:54:49.140Z,2316.00
2018-04-06T10:55:49.129Z,2324.00
2018-04-06T10:56:49.109Z,2320.00
2018-04-06T10:57:49.096Z,2332.00
2018-04-06T10:58:49.066Z,2288.00
2018-04-06T10:59:49.048Z,2304.00
2018-04-06T11:00:49.029Z,2304.00
2018-04-06T11:01:49.014Z,2312.00
2018-04-06T11:02:49.000Z,2312.00
2018-04-06T11:03:48.978Z,2312.00
2018-04-06T11:04:48.969Z,2328.00
2018-04-06T11:05:48.939Z,2348.00
2018-04-06T11:06:48.925Z,2352.00
2018-04-06T11:07:48.909Z,2360.00
2018-04-06T11:08:48.891Z,2372.00
2018-04-06T11:09:48.869Z,2388.00
2018-04-06T11:10:48.848Z,2404.00
2018-04-06T11:11:48.830Z,2428.00
2018-04-06T11:12:48.818Z,2440.00
2018-04-06T11:13:48.800Z,2452.00
2018-04-06T11:14:48.782Z,2464.00
2018-04-06T11:15:48.766Z,2456.00
2018-04-06T11:16:48.744Z,2460.00
2018-04-06T11:17:48.723Z,2476.00
2018-04-06T11:18:48.710Z,2500.00
2018-04-06T11:19:48.692Z,2508.00
2018-04-06T11:20:48.689Z,2320.00
2018-04-06T11:21:48.657Z,2368.00
2018-04-06T11:22:48.648Z,2452.00
2018-04-06T11:23:48.617Z,2468.00
2018-04-06T11:24:48.597Z,2484.00
2018-04-06T11:25:48.587Z,2468.00
2018-04-06T11:26:48.563Z,2472.00
2018-04-06T11:27:48.547Z,2508.00
2018-04-06T11:28:48.529Z,2520.00
2018-04-06T11:29:48.512Z,2524.00
2018-04-06T11:30:48.489Z,2536.00
2018-04-06T11:31:48.474Z,2536.00
2018-04-06T11:32:48.456Z,2532.00
2018-04-06T11:33:48.440Z,2540.00
2018-04-06T11:34:48.422Z,2532.00
2018-04-06T11:35:48.405Z,2544.00
2018-04-06T11:36:48.393Z,2536.00
2018-04-06T11:37:48.417Z,2544.00
2018-04-06T11:38:48.357Z,2540.00
2018-04-06T11:39:48.330Z,2548.00
2018-04-06T11:40:48.313Z,2552.00
2018-04-06T11:41:48.295Z,2548.00
2018-04-06T11:42:48.285Z,2548.00
2018-04-06T11:43:48.263Z,2552.00
2018-04-06T11:44:48.241Z,2556.00
2018-04-06T11:45:48.222Z,2560.00
2018-04-06T11:46:48.208Z,2576.00
2018-04-06T11:47:48.188Z,2580.00
2018-04-06T11:48:48.169Z,2584.00
2018-04-06T11:49:48.155Z,2496.00
2018-04-06T11:50:48.132Z,2544.00
2018-04-06T11:51:48.123Z,2572.00
2018-04-06T11:52:48.105Z,2568.00
2018-04-06T11:53:48.087Z,2600.00
2018-04-06T11:54:48.064Z,2616.00
2018-04-06T11:55:48.059Z,2624.00
2018-04-06T11:56:48.027Z,2612.00
2018-04-06T11:57:48.012Z,2592.00
2018-04-06T11:58:47.993Z,2592.00
2018-04-06T11:59:48.014Z,2592.00
2018-04-06T12:00:47.959Z,2576.00
2018-04-06T12:01:47.940Z,2588.00
2018-04-06T12:02:47.919Z,2584.00
2018-04-06T12:03:47.907Z,2572.00
2018-04-06T12:04:47.889Z,2580.00
2018-04-06T12:05:47.872Z,2592.00
2018-04-06T12:06:47.850Z,2584.00
2018-04-06T12:07:47.835Z,2592.00
2018-04-06T12:08:47.820Z,2584.00
2018-04-06T12:09:47.798Z,2584.00
2018-04-06T12:10:47.787Z,2580.00
2018-04-06T12:11:47.769Z,2576.00
2018-04-06T12:12:47.744Z,2584.00
2018-04-06T12:13:47.726Z,2580.00
2018-04-06T12:14:47.709Z,2568.00
2018-04-06T12:15:47.691Z,2568.00
2018-04-06T12:16:47.675Z,2568.00
2018-04-06T12:17:47.659Z,2548.00
2018-04-06T12:18:47.637Z,2548.00
2018-04-06T12:19:47.619Z,2544.00
2018-04-06T12:20:47.601Z,2532.00
2018-04-06T12:21:47.592Z,2540.00
2018-04-06T12:22:47.570Z,2540.00
2018-04-06T12:23:47.616Z,2536.00
2018-04-06T12:24:47.544Z,2548.00
2018-04-06T12:25:47.514Z,2552.00
2018-04-06T12:26:47.499Z,2524.00
2018-04-06T12:27:47.486Z,2560.00
2018-04-06T12:28:47.474Z,2552.00
2018-04-06T12:29:47.449Z,2552.00
2018-04-06T12:30:47.429Z,2552.00
2018-04-06T12:31:47.413Z,2560.00
2018-04-06T12:32:47.400Z,2560.00
2018-04-06T12:33:47.378Z,2544.00
2018-04-06T12:34:47.359Z,2496.00
2018-04-06T12:35:47.359Z,2272.00
2018-04-06T12:36:47.331Z,2212.00
2018-04-06T12:37:47.310Z,2008.00